createdAt,value
2023-08-06T00:02:59.212Z,66.46
2023-08-06T00:08:02.230Z,66.16
2023-08-06T00:13:05.498Z,65.90
2023-08-06T00:18:08.442Z,65.87
2023-08-06T00:23:23.655Z,65.70
2023-08-06T00:28:26.703Z,65.76
2023-08-06T00:33:29.585Z,65.65
2023-08-06T00:38:32.666Z,65.64
2023-08-06T00:43:35.664Z,65.87
2023-08-06T00:48:38.830Z,65.76
2023-08-06T00:53:42.109Z,65.57
2023-08-06T00:58:46.217Z,65.14
2023-08-06T01:03:49.282Z,64.92
2023-08-06T01:09:08.100Z,64.90
2023-08-06T01:14:31.485Z,64.76
2023-08-06T01:19:34.450Z,64.55
2023-08-06T01:24:37.523Z,64.87
2023-08-06T01:29:54.777Z,64.83
2023-08-06T01:35:00.626Z,64.30
2023-08-06T01:40:11.504Z,64.05
2023-08-06T01:45:14.878Z,64.28
2023-08-06T01:50:17.892Z,64.16
2023-08-06T01:55:20.851Z,64.82
2023-08-06T02:00:23.815Z,64.66
2023-08-06T02:05:26.644Z,63.97
2023-08-06T02:10:29.607Z,63.94
2023-08-06T02:15:32.461Z,63.92
2023-08-06T02:20:35.448Z,64.28
2023-08-06T02:25:38.310Z,64.04
2023-08-06T02:30:41.337Z,64.29
2023-08-06T02:35:44.226Z,64.42
2023-08-06T02:40:48.092Z,64.21
2023-08-06T02:45:51.105Z,64.20
2023-08-06T02:50:58.415Z,63.90
2023-08-06T02:56:01.381Z,63.73
2023-08-06T03:01:06.807Z,64.08
2023-08-06T03:06:10.075Z,64.55
2023-08-06T03:11:13.363Z,64.46
2023-08-06T03:16:16.410Z,64.62
2023-08-06T03:21:19.243Z,64.58
2023-08-06T03:26:22.277Z,64.71
2023-08-06T03:31:25.364Z,65.07
2023-08-06T03:36:28.902Z,65.31
2023-08-06T03:41:32.014Z,66.17
2023-08-06T03:46:35.495Z,66.24
2023-08-06T03:51:38.534Z,65.85
2023-08-06T03:56:41.415Z,65.83
2023-08-06T04:01:44.369Z,66.37
2023-08-06T04:06:47.215Z,66.23
2023-08-06T04:11:50.388Z,66.30
2023-08-06T04:16:53.616Z,65.81
2023-08-06T04:21:56.491Z,65.50
2023-08-06T04:26:59.457Z,65.46
2023-08-06T04:32:02.587Z,65.00
2023-08-06T04:37:06.516Z,64.56
2023-08-06T04:42:09.619Z,64.29
2023-08-06T04:47:12.438Z,63.96
2023-08-06T04:52:15.397Z,64.03
2023-08-06T04:57:18.245Z,63.76
2023-08-06T05:02:21.280Z,63.86
2023-08-06T05:07:24.408Z,63.60
2023-08-06T05:12:27.520Z,63.52
2023-08-06T05:17:30.748Z,63.38
2023-08-06T05:22:33.800Z,63.56
2023-08-06T05:27:36.678Z,63.48
2023-08-06T05:32:39.733Z,63.61
2023-08-06T05:37:42.776Z,63.01
2023-08-06T05:42:45.819Z,62.94
2023-08-06T05:47:51.989Z,62.81
2023-08-06T05:52:55.119Z,62.62
2023-08-06T05:57:57.985Z,62.84
2023-08-06T06:03:01.245Z,63.07
2023-08-06T06:08:04.543Z,62.26
2023-08-06T06:13:09.955Z,61.63
2023-08-06T06:18:13.568Z,61.84
2023-08-06T06:23:16.577Z,62.08
2023-08-06T06:28:20.239Z,61.41
2023-08-06T06:33:23.204Z,61.01
2023-08-06T06:38:26.195Z,60.98
2023-08-06T06:43:29.185Z,60.98
2023-08-06T06:48:34.873Z,60.84
2023-08-06T06:53:38.171Z,60.47
2023-08-06T06:58:42.302Z,60.43
2023-08-06T07:03:45.334Z,60.30
2023-08-06T07:08:48.677Z,60.64
2023-08-06T07:13:58.257Z,60.86
2023-08-06T07:19:01.308Z,60.80
2023-08-06T07:24:04.788Z,60.54
2023-08-06T07:29:07.873Z,60.33
2023-08-06T07:34:10.902Z,59.84
2023-08-06T07:39:14.245Z,60.12
2023-08-06T07:44:17.529Z,59.32
2023-08-06T07:49:21.120Z,61.02
2023-08-06T07:54:26.155Z,63.43
2023-08-06T07:59:29.535Z,61.54
2023-08-06T08:04:32.641Z,60.20
2023-08-06T08:09:37.189Z,58.67
2023-08-06T08:14:42.018Z,62.24
2023-08-06T08:19:45.252Z,61.65
2023-08-06T08:24:49.343Z,59.53
2023-08-06T08:29:52.383Z,60.87
2023-08-06T08:34:55.464Z,62.80
2023-08-06T08:39:58.540Z,60.81
2023-08-06T08:45:02.207Z,58.87
2023-08-06T08:50:08.262Z,61.18
2023-08-06T08:55:11.504Z,62.46
2023-08-06T09:00:16.508Z,59.39
2023-08-06T09:05:22.137Z,60.99
2023-08-06T09:10:26.831Z,62.14
2023-08-06T09:15:32.002Z,59.72
2023-08-06T09:20:35.998Z,58.79
2023-08-06T09:25:43.600Z,60.53
2023-08-06T09:30:49.486Z,62.65
2023-08-06T09:35:52.967Z,61.37
2023-08-06T09:40:55.960Z,58.93
2023-08-06T09:45:59.020Z,59.82
2023-08-06T09:51:04.588Z,61.98
2023-08-06T09:56:07.677Z,60.90
2023-08-06T10:01:12.367Z,58.57
2023-08-06T10:06:15.483Z,60.61
2023-08-06T10:11:19.584Z,62.12
2023-08-06T10:16:24.124Z,59.61
2023-08-06T10:21:29.328Z,57.86
2023-08-06T10:26:32.828Z,60.13
2023-08-06T10:31:56.970Z,61.93
2023-08-06T10:37:00.211Z,62.53
2023-08-06T10:42:03.490Z,60.49
2023-08-06T10:47:29.620Z,58.77
2023-08-06T10:52:32.657Z,60.94
2023-08-06T10:57:35.715Z,61.98
2023-08-06T11:02:39.534Z,60.59
2023-08-06T11:07:43.736Z,58.84
2023-08-06T11:12:46.719Z,60.09
2023-08-06T11:17:49.819Z,61.02
2023-08-06T11:22:52.891Z,61.78
2023-08-06T18:33:55.372Z,62.61
2023-08-06T18:38:58.364Z,60.73
2023-08-06T18:44:01.245Z,57.64
2023-08-06T18:49:05.902Z,59.18
2023-08-06T18:54:08.897Z,60.81
2023-08-06T18:59:12.892Z,64.40
2023-08-06T19:04:16.044Z,64.44
2023-08-06T19:09:19.205Z,60.44
2023-08-06T19:14:22.847Z,57.44
2023-08-06T19:19:26.440Z,57.56
2023-08-06T19:24:30.977Z,59.32
2023-08-06T19:29:45.457Z,61.10
2023-08-06T19:34:48.822Z,62.22
2023-08-06T19:39:52.056Z,66.33
2023-08-06T19:44:56.235Z,64.23
2023-08-06T19:50:03.397Z,60.28
2023-08-06T19:55:08.187Z,56.37
2023-08-06T20:00:12.009Z,58.07
2023-08-06T20:05:15.210Z,60.32
2023-08-06T20:10:18.229Z,64.01
2023-08-06T20:15:21.189Z,62.60
2023-08-06T20:20:24.197Z,59.26
2023-08-06T20:25:27.076Z,57.49
2023-08-06T20:30:30.234Z,60.26
2023-08-06T20:35:33.256Z,63.03
2023-08-06T20:40:37.084Z,63.98
2023-08-06T20:45:41.567Z,59.87
2023-08-06T20:50:44.690Z,57.98
2023-08-06T20:55:47.669Z,60.53
2023-08-06T21:00:51.739Z,62.79
2023-08-06T21:06:05.894Z,64.54
2023-08-06T21:11:10.321Z,61.46
2023-08-06T21:16:13.760Z,59.73
2023-08-06T21:21:17.191Z,57.42
2023-08-06T21:26:20.310Z,59.28
2023-08-06T21:31:26.531Z,61.72
2023-08-06T21:36:30.972Z,64.04
2023-08-06T21:41:35.137Z,61.03
2023-08-06T21:46:38.417Z,57.98
2023-08-06T21:51:41.584Z,60.20
2023-08-06T21:56:44.883Z,63.91
2023-08-06T22:01:48.005Z,63.25
2023-08-06T22:06:50.906Z,60.63
2023-08-06T22:11:54.175Z,58.13
2023-08-06T22:16:57.567Z,59.45
2023-08-06T22:22:00.615Z,62.61
2023-08-06T22:27:03.858Z,64.05
2023-08-06T22:32:07.415Z,59.63
2023-08-06T22:37:10.414Z,57.87
2023-08-06T22:42:13.309Z,60.54
2023-08-06T22:47:16.175Z,61.87
2023-08-06T22:52:19.193Z,65.42
2023-08-06T22:57:22.242Z,61.37
2023-08-06T23:02:26.056Z,58.44
2023-08-06T23:07:29.092Z,60.94
2023-08-06T23:12:32.145Z,63.94
2023-08-06T23:17:35.729Z,60.26
2023-08-06T23:22:38.722Z,57.51
2023-08-06T23:27:41.874Z,59.58
2023-08-06T23:32:44.839Z,62.64
2023-08-06T23:37:47.814Z,64.11
2023-08-06T23:42:50.803Z,59.72
2023-08-06T23:47:53.874Z,58.06
2023-08-06T23:52:56.937Z,60.61
2023-08-06T23:58:00.249Z,64.07
